createdAt,value
2022-12-24T00:01:37.899Z,98986.71
2022-12-24T00:04:06.744Z,98982.04
2022-12-24T00:06:35.458Z,98980.52
2022-12-24T00:09:04.452Z,98979.45
2022-12-24T00:11:33.040Z,98973.00
2022-12-24T00:14:01.683Z,98963.83
2022-12-24T00:16:30.060Z,98964.15
2022-12-24T00:18:58.381Z,98960.55
2022-12-24T00:21:26.744Z,98960.93
2022-12-24T00:23:55.058Z,98966.76
2022-12-24T00:26:23.449Z,98967.25
2022-12-24T00:28:51.817Z,98973.16
2022-12-24T00:31:20.311Z,98975.19
2022-12-24T00:33:49.157Z,98978.00
2022-12-24T00:36:19.307Z,98977.29
2022-12-24T00:38:47.733Z,98975.08
2022-12-24T00:41:26.162Z,98975.74
2022-12-24T00:44:10.277Z,98974.52
2022-12-24T00:46:41.347Z,98978.27
2022-12-24T00:49:11.503Z,98977.89
2022-12-24T00:51:39.950Z,98980.14
2022-12-24T00:54:08.671Z,98983.25
2022-12-24T00:56:37.049Z,98982.04
2022-12-24T00:59:05.344Z,98980.97
2022-12-24T01:01:35.803Z,98979.84
2022-12-24T01:04:23.078Z,98984.10
2022-12-24T01:06:51.353Z,98983.98
2022-12-24T01:09:19.653Z,98978.98
2022-12-24T01:11:47.966Z,98981.60
2022-12-24T01:14:16.578Z,98983.85
2022-12-24T01:16:44.883Z,98978.91
2022-12-24T01:19:13.373Z,98986.19
2022-12-24T01:21:41.691Z,98987.89
2022-12-24T01:24:15.823Z,98990.50
2022-12-24T01:26:44.323Z,98976.92
2022-12-24T01:29:12.644Z,98978.27
2022-12-24T01:31:41.069Z,98980.02
2022-12-24T01:34:09.440Z,98972.66
2022-12-24T01:36:37.918Z,98973.08
2022-12-24T01:39:06.455Z,98972.83
2022-12-24T01:41:53.867Z,98967.91
2022-12-24T01:44:36.487Z,98965.76
2022-12-24T01:47:11.543Z,98964.41
2022-12-24T01:49:45.738Z,98963.91
2022-12-24T01:52:24.734Z,98970.23
2022-12-24T01:55:03.740Z,98973.96
2022-12-24T01:57:39.758Z,98979.52
2022-12-24T02:00:14.451Z,98984.09
2022-12-24T02:02:48.010Z,98989.92
2022-12-24T02:05:49.623Z,98986.47
2022-12-24T02:08:19.379Z,98983.64
2022-12-24T02:10:48.934Z,98984.43
2022-12-24T02:13:21.118Z,98980.29
2022-12-24T02:16:45.102Z,98976.66
2022-12-24T02:19:53.475Z,98976.42
2022-12-24T02:23:07.084Z,98973.89
2022-12-24T02:26:13.654Z,98974.36
2022-12-24T02:29:00.231Z,98973.19
2022-12-24T02:32:02.517Z,98969.39
2022-12-24T02:34:51.737Z,98962.80
2022-12-24T02:37:25.015Z,98965.08
2022-12-24T02:40:03.580Z,98962.92
2022-12-24T02:42:40.231Z,98966.86
2022-12-24T02:45:16.856Z,98969.96
2022-12-24T02:47:46.564Z,98975.02
2022-12-24T02:50:17.025Z,98969.35
2022-12-24T02:52:47.414Z,98967.45
2022-12-24T02:55:47.602Z,98964.84
2022-12-24T02:58:45.708Z,98971.32
2022-12-24T03:01:23.033Z,98973.13
2022-12-24T03:04:09.582Z,98974.91
2022-12-24T03:06:51.928Z,98981.48
2022-12-24T03:09:38.862Z,98983.03
2022-12-24T03:12:16.640Z,98984.34
2022-12-24T03:14:47.355Z,98987.08
2022-12-24T03:17:18.312Z,98985.02
2022-12-24T03:19:47.657Z,98986.34
2022-12-24T03:22:17.112Z,98983.99
2022-12-24T03:24:45.502Z,98981.95
2022-12-24T03:27:14.789Z,98976.43
2022-12-24T03:29:43.244Z,98978.56
2022-12-24T03:32:11.535Z,98976.87
2022-12-24T03:34:39.948Z,98978.33
2022-12-24T03:37:08.410Z,98979.75
2022-12-24T03:39:36.735Z,98983.74
2022-12-24T03:42:05.285Z,98980.42
2022-12-24T03:44:33.581Z,98987.88
2022-12-24T03:47:01.979Z,98991.04
2022-12-24T03:49:30.319Z,98991.91
2022-12-24T03:51:58.610Z,98995.02
2022-12-24T03:54:27.034Z,99001.16
2022-12-24T03:56:55.323Z,99004.90
2022-12-24T03:59:23.616Z,99009.39
2022-12-24T04:01:52.048Z,99011.62
2022-12-24T04:04:20.499Z,99012.84
2022-12-24T04:06:48.921Z,99015.17
2022-12-24T04:09:17.366Z,99008.86
2022-12-24T04:11:45.672Z,99012.41
2022-12-24T04:14:14.137Z,99013.14
2022-12-24T04:16:42.754Z,99010.16
2022-12-24T04:19:11.133Z,99008.08
2022-12-24T04:21:39.480Z,99009.10
2022-12-24T04:24:07.890Z,99007.34
2022-12-24T04:26:36.202Z,99005.64
2022-12-24T04:29:04.503Z,99004.92
2022-12-24T04:31:32.878Z,99004.48
2022-12-24T04:34:01.259Z,99006.13
2022-12-24T04:36:30.315Z,99008.73
2022-12-24T04:38:58.625Z,99010.67
2022-12-24T04:41:27.048Z,99014.13
2022-12-24T04:43:55.892Z,99017.12
2022-12-24T04:46:32.140Z,99027.34
2022-12-24T04:49:00.536Z,99028.10
2022-12-24T04:51:29.565Z,99029.23
2022-12-24T04:53:58.012Z,99029.23
2022-12-24T04:56:31.029Z,99028.76
2022-12-24T04:59:00.931Z,99027.80
2022-12-24T05:01:32.831Z,99028.70
2022-12-24T05:04:01.555Z,99035.94
2022-12-24T05:06:32.312Z,99042.81
2022-12-24T05:09:00.834Z,99045.27
2022-12-24T05:11:30.215Z,99045.92
2022-12-24T05:13:58.607Z,99049.27
2022-12-24T05:16:27.254Z,99050.43
2022-12-24T05:18:55.708Z,99053.20
2022-12-24T05:21:25.260Z,99047.54
2022-12-24T05:24:12.705Z,99044.27
2022-12-24T05:26:57.530Z,99063.20
2022-12-24T05:29:25.988Z,99047.21
2022-12-24T05:31:54.311Z,99049.49
2022-12-24T05:34:22.629Z,99055.77
2022-12-24T05:36:50.978Z,99060.36
2022-12-24T05:39:19.455Z,99069.70
2022-12-24T05:41:47.850Z,99072.37
2022-12-24T05:44:17.050Z,99069.64
2022-12-24T05:46:46.011Z,99074.31
2022-12-24T05:49:14.474Z,99075.67
2022-12-24T05:51:42.838Z,99079.09
2022-12-24T05:54:11.594Z,99081.37
2022-12-24T05:56:39.961Z,99081.59
2022-12-24T05:59:08.272Z,99086.46
2022-12-24T06:01:36.628Z,99086.36
2022-12-24T06:04:05.256Z,99088.52
2022-12-24T06:06:33.671Z,99091.94
2022-12-24T06:09:01.992Z,99094.39
2022-12-24T06:11:30.525Z,99098.65
2022-12-24T06:13:58.858Z,99097.88
2022-12-24T06:16:27.269Z,99098.15
2022-12-24T06:18:55.698Z,99103.18
2022-12-24T06:21:24.007Z,99101.61
2022-12-24T06:23:52.428Z,99106.13
2022-12-24T06:26:23.182Z,99108.10
2022-12-24T06:28:52.173Z,99109.19
2022-12-24T06:31:22.573Z,99110.44
2022-12-24T06:33:52.478Z,99118.34
2022-12-24T06:36:24.868Z,99124.00
2022-12-24T06:38:54.849Z,99127.69
2022-12-24T06:41:23.976Z,99126.04
2022-12-24T06:43:53.753Z,99124.83
2022-12-24T06:46:22.686Z,99129.65
2022-12-24T06:48:51.258Z,99134.34
2022-12-24T06:51:20.425Z,99137.23
2022-12-24T06:53:52.762Z,99139.14
2022-12-24T06:56:21.786Z,99148.59
2022-12-24T06:58:50.340Z,99151.42
2022-12-24T07:01:21.217Z,99164.32
2022-12-24T07:03:50.390Z,99161.62
2022-12-24T07:06:31.491Z,99167.53
2022-12-24T07:08:59.892Z,99169.27
2022-12-24T07:11:28.242Z,99171.08
2022-12-24T07:13:56.649Z,99176.98
2022-12-24T07:16:25.055Z,99180.35
2022-12-24T07:18:53.444Z,99189.67
2022-12-24T07:21:21.724Z,99196.06
2022-12-24T07:23:50.129Z,99200.14
2022-12-24T07:26:18.459Z,99200.61
2022-12-24T07:28:46.784Z,99209.27
2022-12-24T07:31:15.201Z,99212.35
2022-12-24T07:33:43.565Z,99230.04
2022-12-24T07:36:19.463Z,99228.22
2022-12-24T07:38:49.096Z,99239.05
2022-12-24T07:41:17.412Z,99246.02
2022-12-24T07:43:46.295Z,99252.52
2022-12-24T07:46:14.716Z,99263.40
2022-12-24T07:48:43.054Z,99270.30
2022-12-24T07:51:11.398Z,99279.48
2022-12-24T07:53:40.185Z,99280.05
2022-12-24T07:56:12.703Z,99281.06
2022-12-24T07:58:42.068Z,99293.20
2022-12-24T08:01:10.836Z,99295.94
2022-12-24T08:03:41.567Z,99308.61
2022-12-24T08:06:10.905Z,99308.68
2022-12-24T08:08:39.339Z,99316.25
2022-12-24T08:11:08.260Z,99315.73
2022-12-24T08:13:37.531Z,99318.05
2022-12-24T08:16:06.607Z,99319.91
2022-12-24T08:18:34.997Z,99323.62
2022-12-24T08:21:06.676Z,99328.45
2022-12-24T08:23:36.584Z,99336.84
2022-12-24T08:26:08.298Z,99341.98
2022-12-24T08:28:37.300Z,99342.56
2022-12-24T08:31:06.038Z,99350.95
2022-12-24T08:33:34.695Z,99350.58
2022-12-24T08:36:03.381Z,99356.28
2022-12-24T08:38:31.690Z,99362.95
2022-12-24T08:41:00.079Z,99370.98
2022-12-24T08:43:28.596Z,99378.17
2022-12-24T08:46:05.797Z,99379.55
2022-12-24T08:48:34.295Z,99380.52
2022-12-24T08:51:11.909Z,99388.77
2022-12-24T08:53:40.381Z,99395.71
2022-12-24T08:56:10.325Z,99404.79
2022-12-24T08:58:38.824Z,99406.23
2022-12-24T09:01:16.064Z,99402.09
2022-12-24T09:03:44.601Z,99410.84
2022-12-24T09:06:13.254Z,99423.34
2022-12-24T09:08:42.098Z,99433.59
2022-12-24T09:11:14.781Z,99426.70
2022-12-24T09:13:44.740Z,99422.18
2022-12-24T09:16:13.388Z,99428.69
2022-12-24T09:18:43.013Z,99433.50
2022-12-24T09:21:15.107Z,99436.21
2022-12-24T09:23:46.223Z,99440.86
2022-12-24T09:26:30.089Z,99446.67
2022-12-24T09:29:00.773Z,99452.38
2022-12-24T09:31:29.466Z,99453.80
2022-12-24T09:33:57.998Z,99463.09
2022-12-24T09:36:26.283Z,99469.55
2022-12-24T09:38:54.764Z,99478.55
2022-12-24T09:41:41.326Z,99477.73
2022-12-24T09:45:03.464Z,99482.02
2022-12-24T09:47:55.610Z,99491.24
2022-12-24T09:50:49.604Z,99496.58
2022-12-24T09:53:50.952Z,99497.42
2022-12-24T09:56:26.113Z,99505.84
2022-12-24T09:59:02.309Z,99513.88
2022-12-24T10:01:34.051Z,99514.69
2022-12-24T10:04:22.575Z,99517.38
2022-12-24T10:07:21.520Z,99518.23
2022-12-24T10:09:58.782Z,99521.20
2022-12-24T10:12:49.383Z,99519.63
2022-12-24T10:15:34.518Z,99523.73
2022-12-24T10:18:35.076Z,99526.20
2022-12-24T10:21:37.335Z,99534.70
2022-12-24T10:24:17.914Z,99540.75
2022-12-24T10:27:24.909Z,99536.04
2022-12-24T10:30:01.645Z,99542.05
2022-12-24T10:32:33.268Z,99542.92
2022-12-24T10:35:16.626Z,99549.83
2022-12-24T10:37:48.567Z,99554.50
2022-12-24T10:40:32.524Z,99556.84
2022-12-24T10:43:01.564Z,99554.42
2022-12-24T10:45:45.431Z,99558.41
2022-12-24T10:48:32.279Z,99563.73
2022-12-24T10:51:07.829Z,99564.52
2022-12-24T10:53:59.425Z,99569.48
2022-12-24T10:56:27.820Z,99572.85
2022-12-24T10:58:56.500Z,99582.09
2022-12-24T11:01:49.891Z,99583.91
2022-12-24T11:04:23.048Z,99583.14
2022-12-24T11:07:18.554Z,99586.34
2022-12-24T11:10:05.685Z,99591.27
2022-12-24T11:12:40.154Z,99593.58
2022-12-24T11:15:34.708Z,99600.71
2022-12-24T11:18:14.809Z,99604.09
2022-12-24T11:20:51.126Z,99607.23
2022-12-24T11:23:19.782Z,99610.95
2022-12-24T11:25:51.731Z,99617.15
2022-12-24T11:28:40.744Z,99616.41
2022-12-24T11:31:32.868Z,99627.73
2022-12-24T11:34:01.476Z,99626.77
2022-12-24T11:36:30.176Z,99622.61
2022-12-24T11:38:59.061Z,99627.23
2022-12-24T11:41:37.431Z,99638.00
2022-12-24T11:44:07.794Z,99641.37
2022-12-24T11:46:43.517Z,99651.13
2022-12-24T11:49:11.958Z,99656.45
2022-12-24T11:52:00.896Z,99659.84
2022-12-24T11:54:39.225Z,99664.18
2022-12-24T11:57:13.683Z,99667.45
2022-12-24T11:59:48.591Z,99676.55
2022-12-24T12:02:37.926Z,99687.71
2022-12-24T12:05:24.838Z,99695.13
2022-12-24T12:08:18.856Z,99697.42
2022-12-24T12:10:51.585Z,99698.25
2022-12-24T12:13:32.994Z,99702.55
2022-12-24T12:16:52.250Z,99703.26
2022-12-24T12:19:23.732Z,99711.80
2022-12-24T12:21:52.374Z,99711.60
2022-12-24T12:24:34.111Z,99709.98
2022-12-24T12:27:20.318Z,99718.46
2022-12-24T12:30:17.863Z,99721.67
2022-12-24T12:33:22.856Z,99730.17
2022-12-24T12:35:52.139Z,99729.83
2022-12-24T12:38:25.305Z,99732.92
2022-12-24T12:41:34.748Z,99726.23
2022-12-24T12:44:49.185Z,99730.91
2022-12-24T12:48:01.211Z,99735.08
2022-12-24T12:50:58.628Z,99740.02
2022-12-24T12:53:44.060Z,99739.60
2022-12-24T12:56:32.977Z,99739.23
2022-12-24T12:59:29.716Z,99746.52
2022-12-24T13:02:19.493Z,99749.21
2022-12-24T13:05:00.343Z,99754.94
2022-12-24T13:07:40.457Z,99754.32
2022-12-24T13:10:11.719Z,99761.83
2022-12-24T13:12:59.443Z,99772.63
2022-12-24T13:15:50.744Z,99773.50
2022-12-24T13:18:44.511Z,99779.14
2022-12-24T13:21:23.126Z,99773.27
2022-12-24T13:24:04.418Z,99779.58
2022-12-24T13:26:33.302Z,99779.89
2022-12-24T13:29:59.084Z,99782.98
2022-12-24T13:32:50.225Z,99788.27
2022-12-24T13:35:18.411Z,99792.11
2022-12-24T13:37:48.655Z,99792.64
2022-12-24T13:40:27.322Z,99798.30
2022-12-24T13:43:01.487Z,99798.90
2022-12-24T13:45:29.974Z,99808.16
2022-12-24T13:48:07.656Z,99807.70
2022-12-24T13:50:39.978Z,99806.13
2022-12-24T13:53:28.707Z,99808.74
2022-12-24T13:56:08.984Z,99815.72
2022-12-24T13:58:41.815Z,99818.23
2022-12-24T14:01:33.420Z,99814.80
2022-12-24T14:04:05.304Z,99815.35
2022-12-24T14:06:39.840Z,99816.62
2022-12-24T14:09:25.395Z,99814.41
2022-12-24T14:11:53.740Z,99823.23
2022-12-24T14:14:45.123Z,99822.77
2022-12-24T14:17:19.396Z,99820.96
2022-12-24T14:20:00.258Z,99817.83
2022-12-24T14:22:40.129Z,99817.16
2022-12-24T14:25:23.644Z,99821.52
2022-12-24T14:28:05.385Z,99827.63
2022-12-24T14:30:33.780Z,99831.20
2022-12-24T14:33:02.172Z,99833.43
2022-12-24T14:35:39.696Z,99836.36
2022-12-24T14:38:21.454Z,99839.22
2022-12-24T14:41:16.131Z,99841.87
2022-12-24T14:44:14.129Z,99849.14
2022-12-24T14:47:01.825Z,99849.52
2022-12-24T14:49:58.537Z,99854.70
2022-12-24T14:53:05.310Z,99856.17
2022-12-24T14:55:42.718Z,99869.21
2022-12-24T14:58:30.302Z,99874.13
2022-12-24T15:01:30.637Z,99882.97
2022-12-24T15:04:09.055Z,99893.52
2022-12-24T15:06:47.909Z,99901.20
2022-12-24T15:09:29.410Z,99905.77
2022-12-24T15:12:03.939Z,99911.52
2022-12-24T15:14:42.639Z,99909.30
2022-12-24T15:17:12.830Z,99920.52
2022-12-24T15:19:47.828Z,99932.96
2022-12-24T15:22:31.436Z,99941.11
2022-12-24T15:24:59.795Z,99945.88
2022-12-24T15:27:33.502Z,99954.39
2022-12-24T15:30:15.198Z,99959.84
2022-12-24T15:32:43.726Z,99963.98
2022-12-24T15:35:46.903Z,99956.30
2022-12-24T15:38:29.547Z,99961.34
2022-12-24T15:40:58.714Z,99958.33
2022-12-24T15:43:27.503Z,99959.16
2022-12-24T15:45:56.354Z,99958.25
2022-12-24T15:48:27.771Z,99958.89
2022-12-24T15:51:03.741Z,99956.55
2022-12-24T15:53:35.988Z,99958.52
2022-12-24T15:56:08.661Z,99958.64
2022-12-24T15:58:44.386Z,99961.20
2022-12-24T16:01:12.685Z,99958.27
2022-12-24T16:03:55.382Z,99960.91
2022-12-24T16:06:24.311Z,99957.35
2022-12-24T16:08:52.712Z,99962.14
2022-12-24T16:11:33.729Z,99970.11
2022-12-24T16:14:17.163Z,99974.09
2022-12-24T16:16:51.058Z,99982.53
2022-12-24T16:19:37.719Z,99977.68
2022-12-24T16:22:30.308Z,99983.77
2022-12-24T16:25:28.987Z,99992.98
2022-12-24T16:28:00.665Z,99996.27
2022-12-24T16:30:29.558Z,99996.08
2022-12-24T16:32:57.928Z,99999.84
2022-12-24T16:35:36.613Z,100005.61
2022-12-24T16:38:05.106Z,100005.91
2022-12-24T16:40:33.450Z,100009.77
2022-12-24T16:43:20.217Z,100010.13
2022-12-24T16:45:49.254Z,100015.67
2022-12-24T16:48:25.040Z,100023.73
2022-12-24T16:50:53.598Z,100033.08
2022-12-24T16:53:23.939Z,100035.98
2022-12-24T16:55:53.417Z,100039.80
2022-12-24T16:58:21.790Z,100043.53
2022-12-24T17:00:50.294Z,100048.55
2022-12-24T17:03:18.781Z,100052.00
2022-12-24T17:05:48.292Z,100057.55
2022-12-24T17:08:16.893Z,100060.31
2022-12-24T17:10:52.306Z,100059.50
2022-12-24T17:13:20.641Z,100064.06
2022-12-24T17:15:49.019Z,100063.80
2022-12-24T17:18:17.726Z,100067.38
2022-12-24T17:20:46.033Z,100064.33
2022-12-24T17:23:14.387Z,100063.20
2022-12-24T17:25:42.796Z,100064.55
2022-12-24T17:28:11.108Z,100070.05
2022-12-24T17:30:40.810Z,100078.85
2022-12-24T17:33:14.302Z,100078.92
2022-12-24T17:35:44.070Z,100075.65
2022-12-24T17:38:12.441Z,100076.41
2022-12-24T17:40:40.751Z,100081.09
2022-12-24T17:43:09.188Z,100080.70
2022-12-24T17:45:42.239Z,100083.46
2022-12-24T17:48:10.606Z,100082.95
2022-12-24T17:50:40.050Z,100084.02
2022-12-24T17:53:08.481Z,100087.70
2022-12-24T17:55:43.684Z,100093.64
2022-12-24T17:58:12.265Z,100097.84
2022-12-24T18:00:42.015Z,100094.41
2022-12-24T18:03:14.124Z,100092.83
2022-12-24T18:05:42.604Z,100094.80
2022-12-24T18:08:10.990Z,100098.21
2022-12-24T18:10:39.691Z,100101.20
2022-12-24T18:13:11.511Z,100101.49
2022-12-24T18:15:43.894Z,100104.11
2022-12-24T18:18:12.604Z,100108.10
2022-12-24T18:20:46.324Z,100115.39
2022-12-24T18:23:16.272Z,100120.09
2022-12-24T18:25:44.608Z,100122.30
2022-12-24T18:28:12.972Z,100122.67
2022-12-24T18:30:41.299Z,100122.84
2022-12-24T18:33:09.591Z,100123.98
2022-12-24T18:35:38.292Z,100125.66
2022-12-24T18:38:06.622Z,100125.23
2022-12-24T18:40:37.265Z,100123.92
2022-12-24T18:43:05.610Z,100129.95
2022-12-24T18:45:34.228Z,100141.92
2022-12-24T18:48:02.527Z,100151.30
2022-12-24T18:50:30.837Z,100150.57
2022-12-24T18:52:59.207Z,100154.13
2022-12-24T18:55:27.652Z,100158.25
2022-12-24T18:57:56.400Z,100161.68
2022-12-24T19:00:24.791Z,100160.86
2022-12-24T19:02:53.405Z,100163.98
2022-12-24T19:05:22.131Z,100171.45
2022-12-24T19:07:50.559Z,100173.35
2022-12-24T19:10:19.057Z,100173.79
2022-12-24T19:12:47.422Z,100175.48
2022-12-24T19:15:16.159Z,100178.61
2022-12-24T19:17:44.665Z,100176.14
2022-12-24T19:20:13.082Z,100176.70
2022-12-24T19:22:41.422Z,100176.40
2022-12-24T19:25:09.996Z,100178.81
2022-12-24T19:27:38.360Z,100184.70
2022-12-24T19:30:07.548Z,100186.69
2022-12-24T19:32:35.888Z,100193.31
2022-12-24T19:35:05.374Z,100194.41
2022-12-24T19:37:33.745Z,100197.90
2022-12-24T19:40:02.102Z,100197.65
2022-12-24T19:42:30.846Z,100202.39
2022-12-24T19:44:59.245Z,100207.85
2022-12-24T19:47:27.557Z,100217.48
2022-12-24T19:49:55.924Z,100219.34
2022-12-24T19:52:24.272Z,100217.23
2022-12-24T19:54:52.609Z,100210.63
2022-12-24T19:57:21.061Z,100211.63
2022-12-24T19:59:49.411Z,100217.16
2022-12-24T20:02:17.863Z,100220.72
2022-12-24T20:04:46.417Z,100222.17
2022-12-24T20:07:14.773Z,100226.92
2022-12-24T20:09:43.370Z,100224.95
2022-12-24T20:12:11.638Z,100227.96
2022-12-24T20:14:40.003Z,100230.54
2022-12-24T20:17:08.987Z,100234.41
2022-12-24T20:19:37.352Z,100234.18
2022-12-24T20:22:05.663Z,100241.02
2022-12-24T20:24:34.217Z,100249.78
2022-12-24T20:27:02.584Z,100251.65
2022-12-24T20:29:30.886Z,100250.08
2022-12-24T20:31:59.274Z,100257.02
2022-12-24T20:34:27.648Z,100260.77
2022-12-24T20:36:55.913Z,100257.77
2022-12-24T20:39:24.233Z,100263.56
2022-12-24T20:41:52.631Z,100263.59
2022-12-24T20:44:21.004Z,100263.55
2022-12-24T20:46:49.356Z,100265.63
2022-12-24T20:49:17.722Z,100270.13
2022-12-24T20:51:46.065Z,100270.79
2022-12-24T20:54:15.107Z,100268.89
2022-12-24T20:56:43.416Z,100271.11
2022-12-24T20:59:11.757Z,100271.95
2022-12-24T21:01:40.264Z,100271.21
2022-12-24T21:04:10.564Z,100269.56
2022-12-24T21:06:39.036Z,100273.77
2022-12-24T21:09:07.484Z,100273.80
2022-12-24T21:11:51.372Z,100277.91
2022-12-24T21:14:27.599Z,100281.76
2022-12-24T21:16:56.114Z,100280.41
2022-12-24T21:19:25.492Z,100280.14
2022-12-24T21:21:55.101Z,100284.73
2022-12-24T21:24:24.502Z,100284.60
2022-12-24T21:26:52.882Z,100285.16
2022-12-24T21:29:21.219Z,100287.25
2022-12-24T21:31:49.556Z,100291.09
2022-12-24T21:34:17.908Z,100293.35
2022-12-24T21:36:46.384Z,100285.70
2022-12-24T21:39:14.860Z,100294.58
2022-12-24T21:41:43.224Z,100297.94
2022-12-24T21:44:11.638Z,100302.56
2022-12-24T21:46:39.983Z,100301.29
2022-12-24T21:49:28.875Z,100300.97
2022-12-24T21:51:59.111Z,100304.13
2022-12-24T21:54:28.601Z,100296.14
2022-12-24T21:57:22.661Z,100294.17
2022-12-24T21:59:57.338Z,100300.23
2022-12-24T22:02:29.085Z,100299.27
2022-12-24T22:04:57.739Z,100293.95
2022-12-24T22:07:46.890Z,100295.88
2022-12-24T22:10:34.098Z,100294.20
2022-12-24T22:13:07.483Z,100291.95
2022-12-24T22:15:46.733Z,100297.56
2022-12-24T22:18:17.327Z,100296.39
2022-12-24T22:20:46.378Z,100298.48
2022-12-24T22:23:15.481Z,100300.48
2022-12-24T22:25:45.119Z,100297.80
2022-12-24T22:28:13.626Z,100298.90
2022-12-24T22:30:43.198Z,100305.61
2022-12-24T22:33:12.032Z,100301.50
2022-12-24T22:35:40.954Z,100301.95
2022-12-24T22:38:10.264Z,100300.93
2022-12-24T22:40:40.182Z,100302.48
2022-12-24T22:43:08.522Z,100304.99
2022-12-24T22:45:39.576Z,100307.50
2022-12-24T22:48:08.107Z,100316.67
2022-12-24T22:50:40.052Z,100320.14
2022-12-24T22:53:08.483Z,100326.78
2022-12-24T22:55:36.809Z,100328.52
2022-12-24T22:58:05.553Z,100326.31
2022-12-24T23:00:40.197Z,100328.52
2022-12-24T23:03:09.800Z,100328.59
2022-12-24T23:05:39.325Z,100324.43
2022-12-24T23:08:08.494Z,100330.56
2022-12-24T23:10:37.920Z,100333.81
2022-12-24T23:13:25.489Z,100340.27
2022-12-24T23:15:53.818Z,100341.35
2022-12-24T23:18:22.218Z,100341.43
2022-12-24T23:20:50.509Z,100348.76
2022-12-24T23:23:18.905Z,100344.90
2022-12-24T23:25:47.265Z,100345.83
2022-12-24T23:28:15.613Z,100355.27
2022-12-24T23:30:44.096Z,100351.23
2022-12-24T23:33:12.976Z,100351.52
2022-12-24T23:35:41.282Z,100357.13
2022-12-24T23:38:09.599Z,100367.30
2022-12-24T23:40:37.892Z,100366.32
2022-12-24T23:43:08.039Z,100371.71
2022-12-24T23:45:37.164Z,100382.63
2022-12-24T23:48:05.908Z,100396.35
2022-12-24T23:50:34.199Z,100396.81
2022-12-24T23:53:02.567Z,100401.43
2022-12-24T23:55:30.958Z,100406.27
2022-12-24T23:57:59.281Z,100400.06
